Berlin, Michigan
Current Conditions -  °F | °C
As of 7:13 PM on Friday 28 Nov 2014 (Local Time) from KD95 Reporting Station
Light Snow Light Snow  
Wind Chill: 16°   Ceiling: 8000
Heat Index: 24°   Visibility: 7mi
Dew Point: 20°   Wind: 7mph
Humidity: 87%   Direction: 140°SE
Pressure: 30.12"   Gusts: NA
Location:  42.9384°N, 82.9255°W
Report Text: KD95 290013Z AUTO 14006KT 7SM -SN SCT070 OVC080 M05/M06 A3012 RMK AO2 T10461065
Loading
Personal Weather Stations






























Interactive Weather Map New forecast layout! Learn more

10-Day Weather Forecast

Advertisements
Track Severe Weather on mobile